Time;durP1;ratioP1;P1;durP2;ratioP2;P2;SDS_P1;SDS_P2;PMS_P1;PMS_P2;Temp;Humidity;BMP_temperature;BMP_pressure;BME280_temperature;BME280_humidity;BME280_pressure;Samples;Min_cycle;Max_cycle;Signal;HPM_P1;HPM_P2
2024/03/16 00:02:15;;;;;;;472.00;23.50;;;;;;;9.79;79.26;100319.67;105478;1297;351614;-61
2024/03/16 00:04:43;;;;;;;20.40;14.60;;;;;;;9.70;78.64;100317.58;105670;1295;24313;-60
2024/03/16 00:07:10;;;;;;;22.80;15.70;;;;;;;9.62;78.86;100312.89;105586;1310;22656;-59
2024/03/16 00:09:37;;;;;;;30.70;10.80;;;;;;;9.59;78.72;100314.84;106438;1310;23335;-61
2024/03/16 00:12:06;;;;;;;49.10;18.70;;;;;;;9.52;79.39;100315.48;105664;1316;22532;-59
2024/03/16 00:14:33;;;;;;;34.20;18.60;;;;;;;9.42;79.25;100311.68;105639;1295;22532;-60
2024/03/16 00:16:59;;;;;;;19.70;16.10;;;;;;;9.38;78.87;100309.33;105398;1300;22614;-60
2024/03/16 00:19:25;;;;;;;35.20;14.50;;;;;;;9.32;79.83;100312.90;105685;1310;23105;-58
2024/03/16 00:21:51;;;;;;;24.20;16.20;;;;;;;9.20;79.14;100308.10;105896;1311;22634;-61
2024/03/16 00:24:16;;;;;;;44.60;13.80;;;;;;;9.14;78.71;100312.14;105586;1310;23766;-59
2024/03/16 00:26:42;;;;;;;19.60;14.80;;;;;;;9.11;79.53;100312.02;105528;1299;27687;-61
2024/03/16 00:29:08;;;;;;;112.10;13.60;;;;;;;9.12;79.29;100311.48;105612;1302;22535;-59
2024/03/16 00:31:34;;;;;;;12.40;10.90;;;;;;;9.15;79.18;100310.58;105660;1311;22610;-60
2024/03/16 00:34:00;;;;;;;15.20;12.90;;;;;;;9.16;79.64;100316.41;105656;1310;22737;-60
2024/03/16 00:36:25;;;;;;;17.40;14.00;;;;;;;9.18;79.73;100310.18;105677;1297;22567;-60
2024/03/16 00:38:51;;;;;;;17.50;13.60;;;;;;;9.24;79.56;100310.44;105660;1310;24125;-60
2024/03/16 00:41:17;;;;;;;17.70;13.70;;;;;;;9.27;79.33;100305.74;105492;1313;24235;-57
2024/03/16 00:43:47;;;;;;;15.90;12.00;;;;;;;9.28;80.70;100302.30;105540;1316;22724;-60
2024/03/16 00:46:13;;;;;;;15.40;13.40;;;;;;;9.21;79.72;100301.19;105481;1299;22675;-59
2024/03/16 00:48:38;;;;;;;17.70;13.80;;;;;;;9.24;80.35;100299.95;105435;1317;22613;-60
2024/03/16 00:51:04;;;;;;;15.20;12.60;;;;;;;9.31;80.32;100293.48;105478;1313;24020;-59
2024/03/16 00:53:29;;;;;;;18.30;14.00;;;;;;;9.34;80.26;100291.19;105376;1310;22601;-60
2024/03/16 00:55:55;;;;;;;16.40;14.60;;;;;;;9.37;80.01;100290.94;105505;1295;22695;-58
2024/03/16 00:58:20;;;;;;;14.10;12.10;;;;;;;9.43;81.60;100289.64;105703;1316;22580;-60
2024/03/16 01:00:46;;;;;;;16.10;14.40;;;;;;;9.47;82.08;100289.07;105650;1311;22714;-59
2024/03/16 01:03:12;;;;;;;23.20;14.80;;;;;;;9.51;82.61;100287.09;105645;1311;22679;-59
2024/03/16 01:05:37;;;;;;;19.70;14.00;;;;;;;9.57;82.26;100283.89;105429;1295;22622;-60
2024/03/16 01:08:03;;;;;;;20.50;13.50;;;;;;;9.57;82.66;100278.39;105593;1310;23166;-60
2024/03/16 01:10:29;;;;;;;14.40;11.80;;;;;;;9.57;80.80;100282.86;105513;1317;22592;-59
2024/03/16 01:12:54;;;;;;;21.00;14.00;;;;;;;9.54;80.41;100274.30;105539;1316;23054;-60
2024/03/16 01:15:20;;;;;;;16.00;12.40;;;;;;;9.51;82.32;100276.95;105622;1316;23330;-59
2024/03/16 01:17:47;;;;;;;15.60;12.10;;;;;;;9.44;80.80;100273.10;105575;1297;22596;-59
2024/03/16 01:20:13;;;;;;;15.80;12.20;;;;;;;9.44;81.09;100271.73;105777;1315;23813;-58
2024/03/16 01:22:39;;;;;;;18.20;12.60;;;;;;;9.44;81.22;100267.43;105474;1316;22618;-59
2024/03/16 01:25:08;;;;;;;13.40;12.10;;;;;;;9.44;80.82;100266.74;105533;1316;25270;-58
2024/03/16 01:27:36;;;;;;;15.00;11.80;;;;;;;9.43;80.53;100260.39;105151;1300;22572;-61
2024/03/16 01:30:03;;;;;;;13.70;12.10;;;;;;;9.42;80.49;100260.75;105289;1303;22587;-63
2024/03/16 01:32:28;;;;;;;34.30;13.40;;;;;;;9.39;80.30;100264.09;105426;1306;22787;-62
2024/03/16 01:34:54;;;;;;;18.20;13.20;;;;;;;9.31;80.39;100262.52;105420;1303;23064;-60
2024/03/16 01:37:20;;;;;;;16.60;12.60;;;;;;;9.31;81.59;100267.68;105397;1297;22603;-62
2024/03/16 01:39:45;;;;;;;18.40;13.70;;;;;;;9.30;82.41;100272.34;105441;1314;22636;-61
2024/03/16 01:42:12;;;;;;;20.10;15.50;;;;;;;9.29;83.48;100277.00;105464;1311;23882;-62
2024/03/16 01:44:39;;;;;;;17.90;14.60;;;;;;;9.33;82.17;100278.66;105600;1314;22585;-61
2024/03/16 01:47:10;;;;;;;20.30;15.10;;;;;;;9.35;81.54;100281.70;105483;1297;22866;-61
2024/03/16 01:49:36;;;;;;;19.10;15.00;;;;;;;9.38;82.61;100281.30;105288;1310;22821;-61
2024/03/16 01:52:03;;;;;;;18.50;15.30;;;;;;;9.43;82.18;100278.29;105295;1317;22603;-63
2024/03/16 01:54:30;;;;;;;22.30;16.00;;;;;;;9.46;81.60;100275.66;105383;1317;22633;-61
2024/03/16 01:56:56;;;;;;;25.20;15.70;;;;;;;9.48;81.98;100279.23;105725;1295;23045;-58
2024/03/16 01:59:22;;;;;;;20.30;16.30;;;;;;;9.52;83.91;100278.83;105520;1310;22719;-60
2024/03/16 02:01:48;;;;;;;19.90;15.90;;;;;;;9.56;84.76;100280.31;105492;1313;22552;-60
2024/03/16 02:04:14;;;;;;;20.00;14.90;;;;;;;9.59;87.32;100282.83;105387;1316;23218;-57
2024/03/16 02:06:39;;;;;;;22.10;15.20;;;;;;;9.65;86.63;100287.21;105536;1294;22579;-59
2024/03/16 02:09:06;;;;;;;15.10;13.50;;;;;;;9.73;86.86;100282.77;105423;1307;23033;-60
2024/03/16 02:11:32;;;;;;;;;;;;;;;9.77;86.56;100280.11;105361;1316;22548;-59
2024/03/16 02:13:57;;;;;;;14.40;12.90;;;;;;;9.77;87.02;100278.55;105430;1318;25452;-61
2024/03/16 02:16:23;;;;;;;16.30;13.30;;;;;;;9.77;86.35;100280.11;105343;1303;22574;-57
2024/03/16 02:18:48;;;;;;;21.10;14.20;;;;;;;9.73;86.60;100277.43;105371;1293;22612;-60
2024/03/16 02:21:14;;;;;;;19.20;14.20;;;;;;;9.70;85.43;100279.03;105438;1317;22526;-59
2024/03/16 02:23:39;;;;;;;18.30;15.60;;;;;;;9.67;86.64;100281.67;105426;1310;22643;-60
2024/03/16 02:26:07;;;;;;;20.70;15.70;;;;;;;9.65;84.66;100282.73;105471;1317;22883;-59
2024/03/16 02:28:33;;;;;;;20.30;15.30;;;;;;;9.65;84.45;100283.42;105443;1300;22823;-58
2024/03/16 02:30:58;;;;;;;17.20;14.10;;;;;;;9.66;84.96;100284.95;105559;1317;23095;-60
2024/03/16 02:33:24;;;;;;;19.10;14.20;;;;;;;9.66;85.04;100287.02;105388;1316;22582;-59
2024/03/16 02:35:49;;;;;;;20.20;14.80;;;;;;;9.63;85.24;100289.98;105723;1317;22577;-59
2024/03/16 02:38:15;;;;;;;23.40;15.00;;;;;;;9.64;85.44;100288.94;105498;1298;22718;-59
2024/03/16 02:40:42;;;;;;;20.70;15.90;;;;;;;9.63;84.95;100291.03;105582;1313;22567;-60
2024/03/16 02:43:07;;;;;;;;;;;;;;;9.63;85.36;100292.41;105603;1314;22671;-58
2024/03/16 02:45:33;;;;;;;22.90;15.10;;;;;;;9.62;84.90;100288.29;105574;1316;22902;-60
2024/03/16 02:47:59;;;;;;;20.10;14.50;;;;;;;9.60;84.61;100292.62;105528;1295;22558;-58
2024/03/16 02:50:24;;;;;;;24.00;14.80;;;;;;;9.58;85.85;100291.11;105614;1317;22622;-59
2024/03/16 02:52:50;;;;;;;17.60;14.60;;;;;;;9.59;85.53;100296.61;105531;1304;22593;-59
2024/03/16 02:55:15;;;;;;;19.90;13.20;;;;;;;9.58;86.64;100303.50;105500;1317;23027;-59
2024/03/16 02:57:41;;;;;;;18.50;13.00;;;;;;;9.57;86.72;100306.61;105476;1294;22585;-60
2024/03/16 03:00:10;;;;;;;14.20;12.50;;;;;;;9.56;86.68;100306.11;105416;1294;22853;-60
2024/03/16 03:02:38;;;;;;;16.70;12.50;;;;;;;9.57;86.49;100304.37;105603;1310;22620;-60
2024/03/16 03:05:05;;;;;;;14.70;12.00;;;;;;;9.59;87.90;100302.97;106509;1316;22511;-60
2024/03/16 03:07:31;;;;;;;;;;;;;;;9.57;87.57;100306.60;105619;1317;22564;-58
2024/03/16 03:09:56;;;;;;;11.10;10.00;;;;;;;9.57;89.17;100306.77;105554;1309;23110;-59
2024/03/16 03:12:25;;;;;;;13.90;10.80;;;;;;;9.61;88.27;100305.33;105561;1317;22580;-60
2024/03/16 03:14:50;;;;;;;11.90;10.40;;;;;;;9.67;88.38;100306.61;105463;1316;23192;-59
2024/03/16 03:17:16;;;;;;;12.30;10.50;;;;;;;9.72;89.10;100305.85;105409;1317;22511;-60
2024/03/16 03:19:43;;;;;;;13.80;11.20;;;;;;;9.76;90.42;100308.02;105518;1298;22615;-58
2024/03/16 03:22:09;;;;;;;14.00;10.80;;;;;;;9.74;88.20;100308.39;105543;1307;22593;-59
2024/03/16 03:24:34;;;;;;;12.00;10.10;;;;;;;9.72;89.26;100310.32;105544;1302;22585;-59
2024/03/16 03:27:00;;;;;;;9.50;8.50;;;;;;;9.70;88.64;100305.88;105362;1309;22766;-59
2024/03/16 03:29:25;;;;;;;12.30;9.20;;;;;;;9.70;88.93;100306.91;105517;1300;25281;-60
2024/03/16 03:31:51;;;;;;;11.30;9.60;;;;;;;9.66;90.58;100305.95;105577;1317;22520;-58
2024/03/16 03:34:17;;;;;;;11.10;10.00;;;;;;;9.60;90.28;100306.55;105404;1311;22614;-61
2024/03/16 03:36:44;;;;;;;11.00;9.90;;;;;;;9.58;89.31;100312.10;105263;1302;22674;-59
2024/03/16 03:39:16;;;;;;;12.40;8.90;;;;;;;9.56;89.65;100309.89;105285;1297;22800;-58
2024/03/16 03:41:42;;;;;;;10.50;9.00;;;;;;;9.50;91.13;100306.03;105533;1313;22583;-58
2024/03/16 03:44:49;;;;;;;11.50;9.30;;;;;;;9.43;89.08;100306.67;105576;1311;25434;-60
2024/03/16 03:47:02;;;;;;;10.50;9.50;;;;;;;9.38;88.58;100306.41;106596;1311;103179;-60
2024/03/16 03:49:40;;;;;;;10.20;9.20;;;;;;;9.36;88.56;100307.69;101888;1297;5003771;-59
2024/03/16 03:52:05;;;;;;;10.70;9.60;;;;;;;9.32;87.30;100312.90;105421;1294;23865;-58
2024/03/16 03:54:31;;;;;;;12.90;9.30;;;;;;;9.26;87.61;100311.79;105514;1316;23488;-59
2024/03/16 03:56:57;;;;;;;10.90;8.80;;;;;;;9.23;87.85;100308.22;105674;1314;22586;-60
2024/03/16 03:59:22;;;;;;;10.90;9.50;;;;;;;9.23;87.16;100308.23;105679;1292;22893;-59
2024/03/16 04:01:48;;;;;;;15.10;9.80;;;;;;;9.21;89.01;100308.43;105793;1314;22782;-57
2024/03/16 04:04:14;;;;;;;10.40;9.40;;;;;;;9.19;87.93;100308.10;105825;1315;22610;-60
2024/03/16 04:06:44;;;;;;;11.30;9.00;;;;;;;9.20;89.09;100313.42;105761;1314;22599;-60
2024/03/16 04:09:11;;;;;;;11.20;10.10;;;;;;;9.22;88.60;100313.05;105708;1295;22615;-60
2024/03/16 04:11:39;;;;;;;15.30;9.20;;;;;;;9.25;88.82;100314.04;105580;1299;22565;-59
2024/03/16 04:14:08;;;;;;;10.20;9.00;;;;;;;9.27;88.43;100318.66;105807;1316;22650;-60
2024/03/16 04:16:34;;;;;;;9.30;8.30;;;;;;;9.32;89.82;100319.78;105685;1316;22866;-61
2024/03/16 04:19:00;;;;;;;13.70;9.40;;;;;;;9.35;92.30;100325.59;105579;1313;27494;-60
2024/03/16 04:21:25;;;;;;;9.60;7.80;;;;;;;9.36;91.47;100322.27;105638;1297;24280;-60
2024/03/16 04:23:51;;;;;;;11.60;9.30;;;;;;;9.42;91.99;100320.63;105615;1314;23956;-59
2024/03/16 04:26:16;;;;;;;10.10;8.60;;;;;;;9.42;91.06;100326.98;105847;1315;22839;-58
2024/03/16 04:28:42;;;;;;;11.40;9.70;;;;;;;9.46;90.84;100331.91;105709;1308;22669;-57
2024/03/16 04:31:08;;;;;;;13.10;9.70;;;;;;;9.47;90.98;100330.34;105562;1295;23006;-57
2024/03/16 04:33:33;;;;;;;14.10;9.60;;;;;;;9.47;89.55;100331.89;105635;1310;22614;-60
2024/03/16 04:35:59;;;;;;;10.40;9.20;;;;;;;9.49;90.76;100330.84;105608;1301;22581;-58
2024/03/16 04:38:25;;;;;;;11.60;9.10;;;;;;;9.47;91.33;100329.84;105893;1311;23042;-60
2024/03/16 04:40:51;;;;;;;10.60;9.50;;;;;;;9.46;90.33;100323.14;105643;1297;22508;-59
2024/03/16 04:43:16;;;;;;;19.10;9.50;;;;;;;9.43;90.56;100323.02;105759;1314;22530;-59
2024/03/16 04:45:47;;;;;;;10.50;9.20;;;;;;;9.45;90.99;100323.66;105786;1314;22540;-59
2024/03/16 04:48:13;;;;;;;12.90;9.70;;;;;;;9.41;90.25;100329.41;105707;1308;22601;-60
2024/03/16 04:50:39;;;;;;;12.70;9.70;;;;;;;9.38;89.36;100333.94;105611;1294;25336;-59
2024/03/16 04:53:05;;;;;;;12.40;9.40;;;;;;;9.35;89.68;100333.48;105419;1316;22977;-59
2024/03/16 04:55:31;;;;;;;10.30;9.10;;;;;;;9.33;89.26;100340.92;105622;1311;22637;-61
2024/03/16 04:58:02;;;;;;;14.80;9.90;;;;;;;9.34;89.45;100343.16;105588;1311;22527;-58
2024/03/16 05:00:27;;;;;;;14.00;9.50;;;;;;;9.32;90.31;100349.20;105546;1292;22616;-60
2024/03/16 05:02:54;;;;;;;12.00;9.20;;;;;;;9.32;89.63;100348.34;105768;1313;22626;-61
2024/03/16 05:05:19;;;;;;;9.20;8.30;;;;;;;9.31;92.41;100346.80;105671;1315;22561;-60
2024/03/16 05:07:45;;;;;;;10.40;8.90;;;;;;;9.31;90.51;100346.64;105676;1315;22623;-60
2024/03/16 05:10:11;;;;;;;9.40;8.40;;;;;;;9.29;91.62;100349.06;105606;1308;22561;-59
2024/03/16 05:12:37;;;;;;;9.60;8.70;;;;;;;9.27;91.03;100348.07;105659;1297;22575;-58
2024/03/16 05:15:03;;;;;;;7.80;7.00;;;;;;;9.24;92.31;100348.45;105518;1314;25972;-58
2024/03/16 05:17:29;;;;;;;8.80;7.90;;;;;;;9.26;92.45;100345.33;105494;1316;22778;-59
2024/03/16 05:19:57;;;;;;;9.90;8.90;;;;;;;9.25;91.62;100346.89;105575;1315;22805;-60
2024/03/16 05:22:25;;;;;;;8.90;7.90;;;;;;;9.25;91.36;100344.82;105646;1298;22580;-58
2024/03/16 05:24:51;;;;;;;9.10;8.20;;;;;;;9.27;92.17;100348.23;105680;1315;22630;-60
2024/03/16 05:27:16;;;;;;;10.00;9.10;;;;;;;9.29;91.20;100351.30;105806;1315;22556;-59
2024/03/16 05:29:42;;;;;;;9.20;8.30;;;;;;;9.33;91.49;100351.07;105702;1315;22556;-59
2024/03/16 05:32:08;;;;;;;11.30;8.70;;;;;;;9.38;92.92;100354.41;105688;1297;22631;-61
2024/03/16 05:34:34;;;;;;;9.70;8.70;;;;;;;9.40;92.40;100354.03;105555;1316;22708;-59
2024/03/16 05:37:00;;;;;;;9.30;8.40;;;;;;;9.42;92.52;100357.10;105479;1310;22698;-59
2024/03/16 05:39:26;;;;;;;10.80;7.40;;;;;;;9.45;91.44;100356.02;105608;1310;22601;-57
2024/03/16 05:41:52;;;;;;;8.40;7.60;;;;;;;9.47;90.69;100357.36;105497;1298;22633;-58
2024/03/16 05:44:18;;;;;;;9.20;8.10;;;;;;;9.54;92.17;100358.63;105551;1315;22583;-60
2024/03/16 05:46:44;;;;;;;9.90;6.80;;;;;;;9.56;92.86;100359.63;105652;1311;24328;-60
2024/03/16 05:49:09;;;;;;;8.10;7.30;;;;;;;9.59;92.94;100354.07;105509;1316;22583;-59
2024/03/16 05:51:35;;;;;;;8.50;7.60;;;;;;;9.62;93.77;100354.88;105474;1314;22499;-58
2024/03/16 05:54:04;;;;;;;7.70;7.00;;;;;;;9.65;92.62;100356.21;105578;1315;22665;-60
2024/03/16 05:56:29;;;;;;;6.70;6.10;;;;;;;9.66;93.49;100355.17;105653;1310;22583;-60
2024/03/16 05:58:55;;;;;;;8.00;6.70;;;;;;;9.68;93.69;100351.87;105622;1310;22604;-58
2024/03/16 06:01:21;;;;;;;8.50;7.70;;;;;;;9.69;92.54;100358.39;105524;1295;22490;-60
2024/03/16 06:03:46;;;;;;;9.00;7.40;;;;;;;9.70;92.37;100360.45;105628;1308;22597;-60
2024/03/16 06:06:12;;;;;;;8.70;7.90;;;;;;;9.71;92.19;100360.61;105702;1309;22647;-60
2024/03/16 06:08:37;;;;;;;9.30;7.50;;;;;;;9.74;92.76;100365.55;105700;1315;22531;-58
2024/03/16 06:11:03;;;;;;;7.30;6.60;;;;;;;9.74;93.35;100363.45;105610;1316;22592;-58
2024/03/16 06:13:29;;;;;;;8.20;7.30;;;;;;;9.77;94.09;100361.36;105557;1298;22570;-60
2024/03/16 06:16:03;;;;;;;9.40;7.10;;;;;;;9.76;94.22;100367.56;105609;1316;22633;-59
2024/03/16 06:18:29;;;;;;;7.80;7.00;;;;;;;9.77;93.53;100367.55;106027;1310;25476;-58
2024/03/16 06:20:55;;;;;;;8.30;7.50;;;;;;;9.79;94.41;100364.23;105589;1316;22577;-58
2024/03/16 06:23:20;;;;;;;7.30;6.70;;;;;;;9.82;94.16;100365.05;105627;1295;22565;-59
2024/03/16 06:25:46;;;;;;;11.50;6.90;;;;;;;9.86;94.01;100371.34;105668;1311;22560;-59
2024/03/16 06:28:21;;;;;;;9.70;6.80;;;;;;;9.89;94.32;100372.13;105599;1311;22591;-59
2024/03/16 06:30:55;;;;;;;8.50;7.20;;;;;;;9.92;94.95;100374.48;105771;1315;23289;-59
2024/03/16 06:33:27;;;;;;;7.30;6.60;;;;;;;9.98;94.54;100383.37;105923;1300;22539;-60
2024/03/16 06:35:55;;;;;;;7.10;6.40;;;;;;;10.03;94.04;100387.75;105641;1305;22586;-62
2024/03/16 06:38:22;;;;;;;7.00;6.30;;;;;;;10.07;93.73;100394.05;105496;1310;22591;-59
2024/03/16 06:40:49;;;;;;;8.20;6.30;;;;;;;10.11;94.14;100395.35;105669;1310;22582;-59
2024/03/16 06:43:15;;;;;;;;;;;;;;;10.18;94.22;100394.72;105646;1297;22724;-61
2024/03/16 06:45:42;;;;;;;7.20;6.50;;;;;;;10.26;94.70;100399.25;105688;1314;22564;-59
2024/03/16 06:48:07;;;;;;;;;;;;;;;10.46;94.06;100401.43;105610;1308;22766;-60
2024/03/16 06:50:35;;;;;;;7.70;6.40;;;;;;;10.60;94.17;100402.55;105615;1315;22651;-60
2024/03/16 06:53:01;;;;;;;6.60;6.00;;;;;;;10.75;93.22;100398.46;101992;1297;5003953;-60
2024/03/16 06:55:26;;;;;;;8.80;5.60;;;;;;;10.98;92.98;100400.04;105613;1310;23087;-59
2024/03/16 06:57:52;;;;;;;6.50;5.80;;;;;;;11.26;92.69;100399.77;105498;1314;25330;-59
2024/03/16 07:00:18;;;;;;;7.60;7.00;;;;;;;11.62;92.01;100406.00;105489;1311;25474;-60
2024/03/16 07:02:44;;;;;;;7.90;5.10;;;;;;;11.84;91.06;100400.13;105468;1294;22807;-60
2024/03/16 07:05:10;;;;;;;6.20;4.40;;;;;;;11.98;89.82;100400.48;105676;1315;22724;-60
2024/03/16 07:07:36;;;;;;;4.90;4.40;;;;;;;12.06;89.69;100398.88;105643;1304;22685;-59
2024/03/16 07:10:05;;;;;;;6.00;4.20;;;;;;;12.11;89.12;100399.79;105568;1301;22841;-60
2024/03/16 07:12:33;;;;;;;6.00;4.60;;;;;;;12.18;89.36;100400.63;105481;1308;22571;-59
2024/03/16 07:14:58;;;;;;;4.70;3.80;;;;;;;12.16;88.03;100399.98;105499;1297;22747;-62
2024/03/16 07:17:26;;;;;;;5.60;4.50;;;;;;;12.18;88.57;100400.30;105479;1310;25653;-60
2024/03/16 07:19:54;;;;;;;5.10;3.80;;;;;;;12.31;88.87;100402.37;105168;1313;500009;-59
2024/03/16 07:22:19;;;;;;;4.80;4.20;;;;;;;12.49;88.77;100400.83;105503;1316;22881;-61
2024/03/16 07:24:45;;;;;;;4.40;4.00;;;;;;;12.59;87.91;100405.73;105668;1297;22584;-60
2024/03/16 07:27:11;;;;;;;6.10;3.90;;;;;;;12.70;87.23;100411.83;105593;1307;22565;-61
2024/03/16 07:29:36;;;;;;;5.40;4.90;;;;;;;12.74;86.23;100409.98;105715;1303;22916;-57
2024/03/16 07:32:22;;;;;;;5.80;3.80;;;;;;;12.79;86.97;100409.50;105711;1308;23023;-60
2024/03/16 07:34:49;;;;;;;4.10;3.80;;;;;;;12.97;87.17;100417.61;105745;1297;22663;-60
2024/03/16 07:37:16;;;;;;;4.20;3.80;;;;;;;13.00;86.22;100419.95;105809;1310;23791;-61
2024/03/16 07:39:45;;;;;;;3.80;3.40;;;;;;;12.98;85.66;100417.60;105833;1316;22686;-61
2024/03/16 07:42:11;;;;;;;7.00;4.70;;;;;;;13.13;85.16;100423.36;105728;1310;24209;-59
2024/03/16 07:44:40;;;;;;;6.70;3.90;;;;;;;13.14;84.95;100429.41;105765;1298;25440;-60
2024/03/16 07:47:06;;;;;;;105.50;23.00;;;;;;;13.20;85.14;100433.20;105535;1308;22699;-60
2024/03/16 07:49:32;;;;;;;77.90;8.20;;;;;;;14.09;82.87;100424.46;105431;1313;24212;-59
2024/03/16 07:51:58;;;;;;;287.10;23.80;;;;;;;14.25;78.77;100423.25;105473;1315;22662;-59
2024/03/16 07:54:23;;;;;;;120.40;13.70;;;;;;;14.28;79.65;100427.84;105394;1297;22587;-60
2024/03/16 07:56:49;;;;;;;18.00;7.10;;;;;;;14.26;78.76;100425.65;103910;1314;22998;-58
2024/03/16 07:59:14;;;;;;;3.60;3.30;;;;;;;13.94;79.02;100428.12;105532;1310;22526;-60
2024/03/16 08:01:40;;;;;;;4.50;4.10;;;;;;;13.48;78.91;100425.30;105837;1311;23689;-61
2024/03/16 08:04:05;;;;;;;3.80;3.30;;;;;;;13.33;80.76;100427.48;105701;1292;23026;-61
2024/03/16 08:06:32;;;;;;;5.30;4.20;;;;;;;13.21;80.82;100424.38;105747;1310;22580;-59
2024/03/16 08:08:58;;;;;;;4.80;3.80;;;;;;;13.13;81.88;100426.31;105663;1312;22679;-61
2024/03/16 08:11:23;;;;;;;5.60;3.60;;;;;;;12.95;81.51;100432.23;105633;1315;22596;-60
2024/03/16 08:13:49;;;;;;;6.80;4.10;;;;;;;12.66;81.56;100434.27;105597;1310;22623;-60
2024/03/16 08:16:15;;;;;;;4.10;3.70;;;;;;;12.51;82.42;100433.44;105255;1298;22531;-60
2024/03/16 08:18:40;;;;;;;4.80;4.30;;;;;;;12.45;83.14;100432.92;105242;1311;23033;-60
2024/03/16 08:21:07;;;;;;;4.10;3.70;;;;;;;12.49;83.33;100432.98;105411;1310;22701;-59
2024/03/16 08:23:33;;;;;;;5.30;4.70;;;;;;;12.47;82.96;100438.58;105858;1303;22690;-60
2024/03/16 08:25:58;;;;;;;4.90;4.50;;;;;;;12.35;83.06;100439.96;105658;1297;25275;-60
2024/03/16 08:28:24;;;;;;;6.60;4.30;;;;;;;12.30;83.62;100438.86;105635;1308;22633;-58
2024/03/16 08:30:49;;;;;;;5.50;4.10;;;;;;;12.31;83.66;100444.56;105657;1298;22610;-58
2024/03/16 08:33:15;;;;;;;6.40;4.40;;;;;;;12.29;83.65;100443.39;105705;1310;22898;-58
2024/03/16 08:35:40;;;;;;;6.20;5.60;;;;;;;12.18;83.71;100440.04;105536;1298;22714;-60
2024/03/16 08:38:06;;;;;;;6.20;5.60;;;;;;;12.11;84.21;100438.64;105619;1304;22606;-60
2024/03/16 08:40:32;;;;;;;6.20;5.50;;;;;;;12.07;84.41;100440.67;105540;1313;24284;-59
2024/03/16 08:42:58;;;;;;;5.30;4.80;;;;;;;12.06;84.47;100441.23;105647;1301;22609;-59
2024/03/16 08:45:23;;;;;;;5.40;5.00;;;;;;;12.07;84.71;100441.69;105564;1308;22963;-60
2024/03/16 08:47:49;;;;;;;6.20;4.80;;;;;;;12.15;84.76;100438.38;105641;1297;22609;-57
2024/03/16 08:50:14;;;;;;;6.40;4.80;;;;;;;12.27;84.43;100443.60;105719;1308;22743;-60
2024/03/16 08:52:40;;;;;;;6.70;5.20;;;;;;;12.36;84.63;100447.70;105814;1308;24227;-59
2024/03/16 08:55:06;;;;;;;5.80;4.50;;;;;;;12.64;84.74;100449.35;105741;1295;22566;-59
2024/03/16 08:57:31;;;;;;;5.30;4.40;;;;;;;12.91;83.56;100448.25;105974;1302;22609;-59
2024/03/16 08:59:57;;;;;;;10.70;5.50;;;;;;;13.14;82.68;100444.13;105980;1310;22548;-58
2024/03/16 09:02:24;;;;;;;5.90;5.30;;;;;;;13.64;82.39;100440.88;105379;1310;22619;-57
2024/03/16 09:04:51;;;;;;;;;;;;;;;14.02;81.26;100437.19;105866;1311;22541;-59
2024/03/16 09:07:17;;;;;;;6.70;4.40;;;;;;;14.75;78.19;100436.23;104530;1308;23050;-57
2024/03/16 09:09:44;;;;;;;23.00;4.70;;;;;;;15.21;77.21;100435.37;104662;1309;22869;-59
2024/03/16 09:12:10;;;;;;;4.80;4.40;;;;;;;15.45;76.70;100440.22;105488;1314;22638;-59
2024/03/16 09:14:36;;;;;;;15.90;4.80;;;;;;;15.64;76.60;100441.01;105864;1308;22860;-58
2024/03/16 09:17:01;;;;;;;20.60;13.70;;;;;;;15.38;74.42;100443.08;105920;1297;22586;-61
2024/03/16 09:19:27;;;;;;;6.30;5.30;;;;;;;15.03;73.56;100444.23;105747;1310;22571;-59
2024/03/16 09:21:53;;;;;;;65.70;9.00;;;;;;;15.36;75.87;100442.77;105888;1294;22590;-60
2024/03/16 09:24:19;;;;;;;66.40;10.80;;;;;;;16.27;74.33;100440.82;105720;1311;23316;-59
2024/03/16 09:26:45;;;;;;;386.10;23.10;;;;;;;17.27;73.49;100439.85;107157;1297;22345;-60
2024/03/16 09:29:10;;;;;;;412.70;28.20;;;;;;;17.79;68.56;100434.93;107294;1314;22292;-60
2024/03/16 09:31:36;;;;;;;108.20;33.70;;;;;;;17.89;68.09;100438.44;107194;1315;22334;-59
2024/03/16 09:34:03;;;;;;;600.00;37.10;;;;;;;18.20;68.09;100438.64;106526;1310;23130;-59
2024/03/16 09:36:29;;;;;;;523.80;42.10;;;;;;;19.07;69.03;100440.73;105865;1297;22633;-58
2024/03/16 09:38:55;;;;;;;534.90;43.10;;;;;;;20.12;63.88;100434.27;105865;1301;22620;-60
2024/03/16 09:41:21;;;;;;;748.00;61.70;;;;;;;20.75;60.40;100440.12;105819;1300;22580;-60
2024/03/16 09:43:47;;;;;;;708.00;46.70;;;;;;;20.49;61.33;100445.01;105588;1314;22635;-60
2024/03/16 09:46:15;;;;;;;954.10;57.50;;;;;;;20.68;64.74;100443.86;106141;1292;25454;-59
2024/03/16 09:48:41;;;;;;;547.80;52.00;;;;;;;20.81;58.48;100446.91;106013;1313;22706;-60
2024/03/16 09:51:18;;;;;;;556.30;38.30;;;;;;;20.39;61.24;100448.93;105932;1315;22512;-59
2024/03/16 09:53:45;;;;;;;784.90;48.00;;;;;;;21.47;64.19;100448.06;105783;1308;23062;-60
2024/03/16 09:56:12;;;;;;;593.60;53.80;;;;;;;21.62;56.11;100450.23;105168;1301;22574;-56
2024/03/16 09:58:40;;;;;;;467.00;37.80;;;;;;;20.77;58.58;100451.02;104783;1316;23064;-58
2024/03/16 10:01:09;;;;;;;585.10;49.10;;;;;;;20.13;58.98;100451.88;105881;1311;22577;-57
2024/03/16 10:03:36;;;;;;;412.20;45.20;;;;;;;20.60;58.75;100450.67;107139;1311;22449;-58
2024/03/16 10:06:08;;;;;;;699.20;56.70;;;;;;;20.67;58.23;100447.77;105047;1304;24200;-56
2024/03/16 10:08:37;;;;;;;622.60;51.20;;;;;;;21.54;58.78;100437.42;104887;1312;23225;-59
2024/03/16 10:11:12;;;;;;;567.70;61.90;;;;;;;21.89;53.23;100439.66;104417;1298;22584;-57
2024/03/16 10:13:58;;;;;;;742.70;52.90;;;;;;;21.65;53.04;100436.33;105332;1310;22581;-59
2024/03/16 10:16:25;;;;;;;1017.40;77.00;;;;;;;22.90;54.55;100439.98;106679;1295;23369;-58
2024/03/16 10:18:53;;;;;;;626.80;48.40;;;;;;;23.50;51.17;100440.80;107104;1308;22494;-60
2024/03/16 10:21:18;;;;;;;930.10;70.60;;;;;;;23.43;50.77;100437.09;107181;1310;22317;-59
2024/03/16 10:23:45;;;;;;;840.70;66.90;;;;;;;23.39;48.40;100434.55;106245;1311;22922;-59
2024/03/16 10:26:13;;;;;;;560.50;61.60;;;;;;;23.04;49.91;100442.34;105525;1310;22636;-59
2024/03/16 10:28:41;;;;;;;585.70;51.90;;;;;;;22.22;52.81;100440.50;105608;1297;22911;-60
2024/03/16 10:31:10;;;;;;;584.50;69.90;;;;;;;22.69;52.03;100442.54;105548;1309;23019;-60
2024/03/16 10:33:37;;;;;;;581.40;40.20;;;;;;;22.24;51.59;100440.80;106065;1308;23476;-58
2024/03/16 10:36:03;;;;;;;;;;;;;;;20.64;51.48;100436.59;105963;1310;22689;-59
2024/03/16 10:38:30;;;;;;;313.80;27.80;;;;;;;19.70;53.26;100433.74;106003;1310;22964;-59
2024/03/16 10:41:00;;;;;;;155.90;21.60;;;;;;;19.11;54.33;100435.98;106100;1309;22648;-59
2024/03/16 10:43:31;;;;;;;53.80;11.40;;;;;;;18.42;55.75;100436.98;106192;1304;22629;-59
2024/03/16 10:45:58;;;;;;;13.70;6.00;;;;;;;18.01;56.54;100438.58;104640;1312;22662;-57
2024/03/16 10:48:24;;;;;;;;;;;;;;;17.46;57.04;100433.37;104166;1306;22491;-59
2024/03/16 10:50:51;;;;;;;22.00;9.50;;;;;;;17.02;58.68;100435.11;105252;1308;22743;-60
2024/03/16 10:53:18;;;;;;;13.90;7.40;;;;;;;16.61;59.17;100433.82;107331;1313;22354;-59
2024/03/16 10:55:49;;;;;;;12.50;4.50;;;;;;;16.23;59.38;100432.13;106180;1316;22686;-56
2024/03/16 10:58:23;;;;;;;5.90;3.80;;;;;;;15.81;60.70;100436.50;105720;1308;25079;-58
2024/03/16 11:00:50;;;;;;;11.50;6.90;;;;;;;15.57;61.45;100438.33;105825;1311;23049;-59
2024/03/16 11:03:27;;;;;;;9.60;3.50;;;;;;;15.36;61.54;100442.45;107202;1316;22361;-57
2024/03/16 11:06:01;;;;;;;10.00;4.00;;;;;;;15.08;63.31;100451.67;107216;1313;22391;-58
2024/03/16 11:08:37;;;;;;;9.20;3.70;;;;;;;14.98;62.92;100451.38;107279;1299;22405;-59
2024/03/16 11:11:08;;;;;;;7.60;3.70;;;;;;;15.11;63.12;100447.89;106511;1311;22613;-58
2024/03/16 11:13:39;;;;;;;6.10;3.40;;;;;;;15.27;63.29;100446.80;106194;1315;22638;-59